createdAt,value
2019-05-26T00:02:19.814Z,8.15
2019-05-26T00:07:44.660Z,8.25
2019-05-26T00:13:09.112Z,8.27
2019-05-26T00:18:34.320Z,8.25
2019-05-26T00:23:57.964Z,8.05
2019-05-26T00:29:22.046Z,7.76
2019-05-26T00:34:46.726Z,7.62
2019-05-26T00:40:12.095Z,7.56
2019-05-26T00:45:37.138Z,7.57
2019-05-26T00:51:00.775Z,7.53
2019-05-26T00:56:25.595Z,7.39
2019-05-26T01:01:49.829Z,7.20
2019-05-26T01:07:13.375Z,7.16
2019-05-26T01:12:37.437Z,7.11
2019-05-26T01:18:02.284Z,7.14
2019-05-26T01:23:26.658Z,7.02
2019-05-26T01:28:51.557Z,7.22
2019-05-26T01:34:15.445Z,7.19
2019-05-26T01:39:40.111Z,7.18
2019-05-26T01:45:05.187Z,7.04
2019-05-26T01:50:30.278Z,6.83
2019-05-26T01:55:54.721Z,6.81
2019-05-26T02:01:20.109Z,6.78
2019-05-26T02:06:44.907Z,6.66
2019-05-26T02:12:09.551Z,6.74
2019-05-26T02:17:34.660Z,6.63
2019-05-26T02:22:59.395Z,6.51
2019-05-26T02:28:23.144Z,6.67
2019-05-26T02:33:47.897Z,6.67
2019-05-26T02:39:12.159Z,6.66
2019-05-26T02:44:36.818Z,6.63
2019-05-26T02:50:01.251Z,6.60
2019-05-26T02:55:25.903Z,6.54
2019-05-26T03:00:50.145Z,6.35
2019-05-26T03:06:15.364Z,6.29
2019-05-26T03:11:40.738Z,6.35
2019-05-26T03:17:04.397Z,6.33
2019-05-26T03:22:29.522Z,6.33
2019-05-26T03:27:54.426Z,6.39
2019-05-26T03:33:18.362Z,6.52
2019-05-26T03:38:43.025Z,6.60
2019-05-26T03:44:07.325Z,6.79
2019-05-26T03:49:31.923Z,7.01
2019-05-26T03:54:57.541Z,7.22
2019-05-26T04:00:22.167Z,7.46
2019-05-26T04:05:45.949Z,7.72
2019-05-26T04:11:10.319Z,7.95
2019-05-26T04:16:34.546Z,8.12
2019-05-26T04:21:58.698Z,8.38
2019-05-26T04:27:23.080Z,8.66
2019-05-26T04:32:47.742Z,8.99
2019-05-26T04:38:12.549Z,9.15
2019-05-26T04:43:36.443Z,9.37
2019-05-26T04:49:00.974Z,9.66
2019-05-26T04:54:25.682Z,9.88
2019-05-26T04:59:50.463Z,10.19
2019-05-26T05:05:14.780Z,10.31
2019-05-26T05:10:42.732Z,10.83
2019-05-26T05:16:04.131Z,11.09
2019-05-26T05:21:28.039Z,11.57
2019-05-26T05:26:52.984Z,11.67
2019-05-26T05:32:16.900Z,11.87
2019-05-26T05:37:41.377Z,12.77
2019-05-26T05:43:05.986Z,13.40
2019-05-26T05:48:31.646Z,14.00
2019-05-26T05:53:55.629Z,15.33
2019-05-26T05:59:20.245Z,14.46
2019-05-26T06:04:44.096Z,13.80
2019-05-26T06:10:08.634Z,14.10
2019-05-26T06:15:33.190Z,14.27
2019-05-26T06:20:57.650Z,14.48
2019-05-26T06:26:22.415Z,15.28
2019-05-26T06:31:47.209Z,15.45
2019-05-26T06:37:11.200Z,16.11
2019-05-26T06:42:35.762Z,16.59
2019-05-26T06:47:59.628Z,17.04
2019-05-26T06:53:24.420Z,16.73
2019-05-26T06:58:48.891Z,17.35
2019-05-26T07:04:12.713Z,17.01
2019-05-26T07:09:36.480Z,17.76
2019-05-26T07:15:01.161Z,17.13
2019-05-26T07:20:26.929Z,18.38
2019-05-26T07:25:50.574Z,17.76
2019-05-26T07:31:15.141Z,18.72
2019-05-26T07:36:39.369Z,18.67
2019-05-26T07:42:10.527Z,19.58
2019-05-26T07:47:29.753Z,19.16
2019-05-26T07:52:54.499Z,18.61
2019-05-26T07:58:19.251Z,18.83
2019-05-26T08:03:42.911Z,19.34
2019-05-26T08:09:09.004Z,19.24
2019-05-26T08:14:33.680Z,19.41
2019-05-26T08:19:57.335Z,19.88
2019-05-26T08:25:21.180Z,20.13
2019-05-26T08:30:45.220Z,20.52
2019-05-26T08:36:09.419Z,19.20
2019-05-26T08:41:33.076Z,19.22
2019-05-26T08:46:57.844Z,20.62
2019-05-26T08:52:22.609Z,20.78
2019-05-26T08:57:47.357Z,20.09
2019-05-26T09:03:11.714Z,20.41
2019-05-26T09:08:36.526Z,20.69
2019-05-26T09:14:01.484Z,20.85
2019-05-26T09:19:26.421Z,20.88
2019-05-26T09:24:50.484Z,20.88
2019-05-26T09:30:14.807Z,21.02
2019-05-26T09:35:38.725Z,21.37
2019-05-26T09:41:03.494Z,22.27
2019-05-26T09:46:28.542Z,20.79
2019-05-26T09:51:53.079Z,21.76
2019-05-26T09:57:16.683Z,21.29
2019-05-26T10:02:41.548Z,22.05
2019-05-26T10:08:06.521Z,21.99
2019-05-26T10:13:32.143Z,21.53
2019-05-26T10:18:57.396Z,21.36
2019-05-26T10:24:21.079Z,21.88
2019-05-26T10:29:45.870Z,21.85
2019-05-26T10:35:11.421Z,21.85
2019-05-26T10:40:35.083Z,22.07
2019-05-26T10:46:00.994Z,21.93
2019-05-26T10:51:25.114Z,21.93
2019-05-26T10:56:49.790Z,22.29
2019-05-26T11:02:14.253Z,22.02
2019-05-26T11:07:38.695Z,22.40
2019-05-26T11:13:02.634Z,23.03
2019-05-26T11:18:26.641Z,22.65
2019-05-26T11:23:50.345Z,23.38
2019-05-26T11:29:13.975Z,22.97
2019-05-26T11:34:37.847Z,22.76
2019-05-26T11:40:01.715Z,21.81
2019-05-26T11:45:26.324Z,22.76
2019-05-26T11:50:50.793Z,22.45
2019-05-26T11:56:14.523Z,22.65
2019-05-26T12:01:39.487Z,22.41
2019-05-26T12:07:04.445Z,23.58
2019-05-26T12:12:29.203Z,23.67
2019-05-26T12:17:54.725Z,23.90
2019-05-26T12:23:19.287Z,22.75
2019-05-26T12:28:43.974Z,22.27
2019-05-26T12:34:08.362Z,24.19
2019-05-26T12:39:32.522Z,24.25
2019-05-26T12:44:56.198Z,22.93
2019-05-26T12:50:21.011Z,23.17
2019-05-26T12:55:45.400Z,22.99
2019-05-26T13:01:09.821Z,22.73
2019-05-26T13:06:34.307Z,22.70
2019-05-26T13:11:58.920Z,22.79
2019-05-26T13:17:22.770Z,23.94
2019-05-26T13:22:47.825Z,23.40
2019-05-26T13:28:11.530Z,23.56
2019-05-26T13:33:36.380Z,23.28
2019-05-26T13:39:00.411Z,23.97
2019-05-26T13:44:26.145Z,23.54
2019-05-26T13:49:50.641Z,23.01
2019-05-26T13:55:15.008Z,23.15
2019-05-26T14:00:39.243Z,23.18
2019-05-26T14:06:03.188Z,22.20
2019-05-26T14:11:27.878Z,22.34
2019-05-26T14:16:54.284Z,22.81
2019-05-26T14:22:18.197Z,22.91
2019-05-26T14:27:42.869Z,22.66
2019-05-26T14:33:07.402Z,22.42
2019-05-26T14:38:42.878Z,22.76
2019-05-26T14:43:57.864Z,22.82
2019-05-26T14:49:22.883Z,23.08
2019-05-26T14:54:47.636Z,23.41
2019-05-26T15:00:12.169Z,23.25
2019-05-26T15:05:36.910Z,22.92
2019-05-26T15:11:00.934Z,23.03
2019-05-26T15:16:24.719Z,23.50
2019-05-26T15:21:49.039Z,23.51
2019-05-26T15:27:13.865Z,24.28
2019-05-26T15:32:37.782Z,23.74
2019-05-26T15:38:01.984Z,24.09
2019-05-26T15:43:26.714Z,23.58
2019-05-26T15:48:50.381Z,23.48
2019-05-26T15:54:15.210Z,23.53
2019-05-26T15:59:40.014Z,23.49
2019-05-26T16:05:03.914Z,22.98
2019-05-26T16:10:29.075Z,23.16
2019-05-26T16:15:53.892Z,23.16
2019-05-26T16:21:27.694Z,22.89
2019-05-26T16:26:43.872Z,22.62
2019-05-26T16:32:08.701Z,22.48
2019-05-26T16:37:33.445Z,22.19
2019-05-26T16:42:57.995Z,22.20
2019-05-26T16:48:23.078Z,23.88
2019-05-26T16:53:47.785Z,24.19
2019-05-26T16:59:12.493Z,23.09
2019-05-26T17:04:37.417Z,22.86
2019-05-26T17:10:02.239Z,22.85
2019-05-26T17:15:26.347Z,23.05
2019-05-26T17:20:49.883Z,23.26
2019-05-26T17:26:14.384Z,22.97
2019-05-26T17:31:39.494Z,22.70
2019-05-26T17:37:07.919Z,22.65
2019-05-26T17:42:50.095Z,22.67
2019-05-26T17:48:17.705Z,22.35
2019-05-26T17:53:41.714Z,22.30
2019-05-26T17:59:06.087Z,21.73
2019-05-26T18:04:30.021Z,21.41
2019-05-26T18:09:53.720Z,21.08
2019-05-26T18:15:18.463Z,20.88
2019-05-26T18:20:42.446Z,20.74
2019-05-26T18:26:07.030Z,20.52
2019-05-26T18:31:31.023Z,20.31
2019-05-26T18:36:55.813Z,20.13
2019-05-26T18:42:19.551Z,19.95
2019-05-26T18:47:43.331Z,19.71
2019-05-26T18:53:07.558Z,19.70
2019-05-26T18:58:32.552Z,19.58
2019-05-26T19:03:56.387Z,19.47
2019-05-26T19:09:20.195Z,19.37
2019-05-26T19:14:44.949Z,19.33
2019-05-26T19:20:16.071Z,19.10
2019-05-26T19:25:36.229Z,18.99
2019-05-26T19:31:00.154Z,18.83
2019-05-26T19:36:24.918Z,18.71
2019-05-26T19:41:49.863Z,18.62
2019-05-26T19:47:13.774Z,18.39
2019-05-26T19:52:38.508Z,18.31
2019-05-26T19:58:03.142Z,18.28
2019-05-26T20:03:26.927Z,18.21
2019-05-26T20:08:51.975Z,18.16
2019-05-26T20:14:16.455Z,18.08
2019-05-26T20:19:40.848Z,18.06
2019-05-26T20:25:06.555Z,18.11
2019-05-26T20:30:31.009Z,18.18
2019-05-26T20:35:56.012Z,18.24
2019-05-26T20:41:19.643Z,18.30
2019-05-26T20:46:43.590Z,18.29
2019-05-26T20:52:07.270Z,18.18
2019-05-26T20:57:31.880Z,18.07
2019-05-26T21:02:56.538Z,17.93
2019-05-26T21:08:20.935Z,17.85
2019-05-26T21:13:44.639Z,17.91
2019-05-26T21:19:08.803Z,17.89
2019-05-26T21:24:32.631Z,17.98
2019-05-26T21:29:57.180Z,17.99
2019-05-26T21:35:21.914Z,17.99
2019-05-26T21:40:46.663Z,17.95
2019-05-26T21:46:10.879Z,17.93
2019-05-26T21:51:35.129Z,17.84
2019-05-26T21:56:59.863Z,17.74
2019-05-26T22:02:24.012Z,17.64
2019-05-26T22:07:48.616Z,17.77
2019-05-26T22:13:12.488Z,17.84
2019-05-26T22:18:36.170Z,18.02
2019-05-26T22:24:00.880Z,18.17
2019-05-26T22:29:26.618Z,18.17
2019-05-26T22:34:51.343Z,18.16
2019-05-26T22:40:16.728Z,18.16
2019-05-26T22:45:41.345Z,18.11
2019-05-26T22:51:05.806Z,18.08
2019-05-26T22:56:30.308Z,18.06
2019-05-26T23:01:53.968Z,18.01
2019-05-26T23:07:18.014Z,18.09
2019-05-26T23:12:41.887Z,18.09
2019-05-26T23:18:06.482Z,17.95
2019-05-26T23:23:30.338Z,17.81
2019-05-26T23:28:54.817Z,17.71
2019-05-26T23:34:19.676Z,17.64
2019-05-26T23:39:44.163Z,17.57
2019-05-26T23:45:08.350Z,17.50
2019-05-26T23:50:33.003Z,17.42
2019-05-26T23:55:57.693Z,17.39
